createdAt,value
2023-03-16T00:01:08.536Z,0.21
2023-03-16T00:03:36.435Z,0.19
2023-03-16T00:06:04.425Z,0.17
2023-03-16T00:08:31.384Z,0.15
2023-03-16T00:10:58.568Z,0.13
2023-03-16T00:13:25.992Z,0.12
2023-03-16T00:15:57.601Z,0.11
2023-03-16T00:18:28.904Z,0.10
2023-03-16T00:20:58.442Z,0.09
2023-03-16T00:23:29.294Z,0.09
2023-03-16T00:26:00.395Z,0.09
2023-03-16T00:28:28.099Z,0.10
2023-03-16T00:30:59.098Z,0.12
2023-03-16T00:33:26.762Z,0.13
2023-03-16T00:36:02.232Z,0.14
2023-03-16T00:38:31.975Z,0.15
2023-03-16T00:40:58.964Z,0.16
2023-03-16T00:43:27.363Z,0.17
2023-03-16T00:46:06.907Z,0.17
2023-03-16T00:48:35.727Z,0.16
2023-03-16T00:51:07.381Z,0.16
2023-03-16T00:53:36.115Z,0.16
2023-03-16T00:56:04.654Z,0.15
2023-03-16T00:58:36.538Z,0.13
2023-03-16T01:01:08.633Z,0.11
2023-03-16T01:03:36.201Z,0.09
2023-03-16T01:06:16.897Z,0.06
2023-03-16T01:08:44.283Z,0.05
2023-03-16T01:11:13.746Z,0.02
2023-03-16T01:13:40.397Z,0.01
2023-03-16T01:16:07.949Z,-0.01
2023-03-16T01:18:35.070Z,-0.03
2023-03-16T01:21:07.835Z,-0.05
2023-03-16T01:23:35.286Z,-0.08
2023-03-16T01:26:02.296Z,-0.13
2023-03-16T01:28:31.830Z,-0.17
2023-03-16T01:31:07.078Z,-0.20
2023-03-16T01:33:34.169Z,-0.25
2023-03-16T01:36:07.292Z,-0.26
2023-03-16T01:38:34.451Z,-0.27
2023-03-16T01:41:01.700Z,-0.27
2023-03-16T01:43:31.162Z,-0.27
2023-03-16T01:46:07.530Z,-0.26
2023-03-16T01:49:04.304Z,-0.23
2023-03-16T01:51:42.014Z,-0.21
2023-03-16T01:54:27.934Z,-0.19
2023-03-16T01:57:09.988Z,-0.17
2023-03-16T01:59:50.622Z,-0.16
2023-03-16T02:02:21.694Z,-0.16
2023-03-16T02:04:59.812Z,-0.14
2023-03-16T02:07:28.608Z,-0.13
2023-03-16T02:10:00.953Z,-0.14
2023-03-16T02:12:29.101Z,-0.14
2023-03-16T02:14:56.117Z,-0.15
2023-03-16T02:17:29.150Z,-0.19
2023-03-16T02:20:22.893Z,-0.20
2023-03-16T02:22:54.776Z,-0.23
2023-03-16T02:26:03.481Z,-0.26
2023-03-16T02:29:25.621Z,-0.33
2023-03-16T02:31:54.561Z,-0.43
2023-03-16T02:34:21.762Z,-0.49
2023-03-16T02:36:49.772Z,-0.52
2023-03-16T02:39:16.705Z,-0.55
2023-03-16T02:41:44.041Z,-0.59
2023-03-16T02:44:15.342Z,-0.64
2023-03-16T02:46:43.678Z,-0.68
2023-03-16T02:49:16.431Z,-0.72
2023-03-16T02:51:45.844Z,-0.76
2023-03-16T02:54:12.842Z,-0.82
2023-03-16T02:56:39.917Z,-0.89
2023-03-16T02:59:06.881Z,-0.94
2023-03-16T03:01:35.895Z,-0.98
2023-03-16T03:04:04.205Z,-1.03
2023-03-16T03:06:32.820Z,-1.07
2023-03-16T03:09:02.030Z,-1.10
2023-03-16T03:11:29.507Z,-1.15
2023-03-16T03:13:56.834Z,-1.20
2023-03-16T03:16:23.846Z,-1.27
2023-03-16T03:18:52.709Z,-1.33
2023-03-16T03:21:19.831Z,-1.39
2023-03-16T03:23:46.862Z,-1.43
2023-03-16T03:26:17.976Z,-1.46
2023-03-16T03:28:45.221Z,-1.50
2023-03-16T03:31:17.739Z,-1.53
2023-03-16T03:33:44.834Z,-1.58
2023-03-16T03:36:12.628Z,-1.61
2023-03-16T03:38:39.253Z,-1.65
2023-03-16T03:41:09.455Z,-1.68
2023-03-16T03:43:36.286Z,-1.69
2023-03-16T03:46:04.459Z,-1.71
2023-03-16T03:48:31.291Z,-1.73
2023-03-16T03:50:58.195Z,-1.76
2023-03-16T03:53:24.894Z,-1.77
2023-03-16T03:55:51.588Z,-1.79
2023-03-16T03:58:18.481Z,-1.80
2023-03-16T04:00:45.371Z,-1.80
2023-03-16T04:03:12.338Z,-1.79
2023-03-16T04:05:39.217Z,-1.79
2023-03-16T04:08:06.086Z,-1.80
2023-03-16T04:10:32.863Z,-1.81
2023-03-16T04:13:00.977Z,-1.82
2023-03-16T04:15:28.144Z,-1.83
2023-03-16T04:17:54.976Z,-1.84
2023-03-16T04:20:23.183Z,-1.85
2023-03-16T04:22:58.369Z,-1.85
2023-03-16T04:25:27.229Z,-1.85
2023-03-16T04:27:54.747Z,-1.85
2023-03-16T04:30:23.555Z,-1.85
2023-03-16T04:32:52.179Z,-1.85
2023-03-16T04:35:19.374Z,-1.87
2023-03-16T04:37:46.038Z,-1.89
2023-03-16T04:40:16.221Z,-1.90
2023-03-16T04:42:44.449Z,-1.89
2023-03-16T04:45:12.320Z,-1.87
2023-03-16T04:47:39.727Z,-1.83
2023-03-16T04:50:08.006Z,-1.78
2023-03-16T04:52:34.775Z,-1.74
2023-03-16T04:55:01.622Z,-1.70
2023-03-16T04:57:28.351Z,-1.66
2023-03-16T04:59:55.083Z,-1.61
2023-03-16T05:02:21.894Z,-1.58
2023-03-16T05:04:48.640Z,-1.55
2023-03-16T05:07:15.637Z,-1.54
2023-03-16T05:09:42.673Z,-1.52
2023-03-16T05:12:11.340Z,-1.50
2023-03-16T05:14:38.046Z,-1.48
2023-03-16T05:17:05.004Z,-1.45
2023-03-16T05:19:31.939Z,-1.42
2023-03-16T05:21:58.735Z,-1.38
2023-03-16T05:24:25.671Z,-1.34
2023-03-16T05:26:52.530Z,-1.32
2023-03-16T05:29:19.407Z,-1.26
2023-03-16T05:31:49.259Z,-1.19
2023-03-16T05:34:16.247Z,-1.14
2023-03-16T05:36:44.975Z,-1.06
2023-03-16T05:39:11.681Z,-0.96
2023-03-16T05:41:38.965Z,-0.88
2023-03-16T05:44:05.871Z,-0.79
2023-03-16T05:46:33.719Z,-0.70
2023-03-16T05:49:00.730Z,-0.62
2023-03-16T05:51:27.721Z,-0.53
2023-03-16T05:53:58.217Z,-0.44
2023-03-16T05:56:25.888Z,-0.36
2023-03-16T05:58:54.147Z,-0.31
2023-03-16T06:01:21.622Z,-0.25
2023-03-16T06:03:49.843Z,-0.20
2023-03-16T06:06:18.001Z,-0.16
2023-03-16T06:08:44.722Z,-0.09
2023-03-16T06:11:12.040Z,0.00
2023-03-16T06:13:39.279Z,0.07
2023-03-16T06:16:06.402Z,0.15
2023-03-16T06:18:34.489Z,0.21
2023-03-16T06:21:01.260Z,0.28
2023-03-16T06:23:28.153Z,0.37
2023-03-16T06:25:55.205Z,0.46
2023-03-16T06:28:23.012Z,0.57
2023-03-16T06:30:53.061Z,0.68
2023-03-16T06:33:20.001Z,0.78
2023-03-16T06:35:48.321Z,0.89
2023-03-16T06:38:15.740Z,0.96
2023-03-16T06:40:42.439Z,1.05
2023-03-16T06:43:09.513Z,1.12
2023-03-16T06:45:36.232Z,1.22
2023-03-16T06:48:04.449Z,1.31
2023-03-16T06:50:31.333Z,1.39
2023-03-16T06:52:57.938Z,1.43
2023-03-16T06:55:24.764Z,1.50
2023-03-16T06:57:51.896Z,1.55
2023-03-16T07:00:19.081Z,1.59
2023-03-16T07:02:45.857Z,1.65
2023-03-16T07:05:15.858Z,1.73
2023-03-16T07:07:46.107Z,1.82
2023-03-16T07:10:15.019Z,1.91
2023-03-16T07:12:42.510Z,1.99
2023-03-16T07:15:10.279Z,2.07
2023-03-16T07:17:36.984Z,2.15
2023-03-16T07:20:05.817Z,2.25
2023-03-16T07:22:35.248Z,2.33
2023-03-16T07:25:01.840Z,2.43
2023-03-16T07:27:29.604Z,2.52
2023-03-16T07:29:56.446Z,2.62
2023-03-16T07:32:23.354Z,2.71
2023-03-16T07:34:50.358Z,2.79
2023-03-16T07:37:21.773Z,2.85
2023-03-16T07:39:51.788Z,2.96
2023-03-16T07:42:18.841Z,3.07
2023-03-16T07:44:45.762Z,3.21
2023-03-16T07:47:13.387Z,3.37
2023-03-16T07:49:41.805Z,3.51
2023-03-16T07:52:08.827Z,3.62
2023-03-16T07:54:35.774Z,3.75
2023-03-16T07:57:02.652Z,3.87
2023-03-16T07:59:29.388Z,4.04
2023-03-16T08:01:56.094Z,4.21
2023-03-16T08:04:22.814Z,4.39
2023-03-16T08:06:50.187Z,4.56
2023-03-16T08:09:16.778Z,4.72
2023-03-16T08:11:43.529Z,4.80
2023-03-16T08:14:10.263Z,4.82
2023-03-16T08:16:37.551Z,4.82
2023-03-16T08:19:04.252Z,4.86
2023-03-16T08:21:31.770Z,4.97
2023-03-16T08:23:58.404Z,5.02
2023-03-16T08:26:28.523Z,5.11
2023-03-16T08:28:55.461Z,5.18
2023-03-16T08:31:25.342Z,5.26
2023-03-16T08:33:52.164Z,5.32
2023-03-16T08:36:21.431Z,5.33
2023-03-16T08:39:03.893Z,5.36
2023-03-16T08:41:34.837Z,5.41
2023-03-16T08:44:03.260Z,5.45
2023-03-16T08:46:30.935Z,5.54
2023-03-16T08:48:57.958Z,5.66
2023-03-16T08:51:25.012Z,5.81
2023-03-16T08:53:51.830Z,5.90
2023-03-16T08:56:18.641Z,5.99
2023-03-16T08:58:46.033Z,6.05
2023-03-16T09:01:15.266Z,6.14
2023-03-16T09:03:42.518Z,6.26
2023-03-16T09:06:11.120Z,6.39
2023-03-16T09:08:39.172Z,6.45
2023-03-16T09:11:09.277Z,6.54
2023-03-16T09:13:38.624Z,6.64
2023-03-16T09:16:07.057Z,6.70
2023-03-16T09:18:35.304Z,6.79
2023-03-16T09:21:08.190Z,6.92
2023-03-16T09:23:37.503Z,6.99
2023-03-16T09:26:07.551Z,7.09
2023-03-16T09:28:38.589Z,7.13
2023-03-16T09:31:06.295Z,7.21
2023-03-16T09:33:34.281Z,7.28
2023-03-16T09:36:01.852Z,7.37
2023-03-16T09:38:29.917Z,7.48
2023-03-16T09:41:03.401Z,7.56
2023-03-16T09:43:55.050Z,7.64
2023-03-16T09:46:28.706Z,7.63
2023-03-16T09:48:57.256Z,7.67
2023-03-16T09:51:38.613Z,7.71
2023-03-16T09:54:29.498Z,7.78
2023-03-16T09:56:58.030Z,7.94
2023-03-16T10:00:02.953Z,8.07
2023-03-16T10:03:06.222Z,8.19
2023-03-16T10:05:34.335Z,8.26
2023-03-16T10:08:15.766Z,8.32
2023-03-16T10:10:48.740Z,8.40
2023-03-16T10:13:53.482Z,8.52
2023-03-16T10:16:42.576Z,8.62
2023-03-16T10:19:17.002Z,8.68
2023-03-16T10:21:43.740Z,8.70
2023-03-16T10:24:25.284Z,8.73
2023-03-16T10:27:00.354Z,8.78
2023-03-16T10:29:36.416Z,8.86
2023-03-16T10:32:14.704Z,8.93
2023-03-16T10:34:47.022Z,9.02
2023-03-16T10:37:14.336Z,9.14
2023-03-16T10:39:42.980Z,9.19
2023-03-16T10:42:21.367Z,9.26
2023-03-16T10:44:47.975Z,9.33
2023-03-16T10:47:28.716Z,9.42
2023-03-16T10:49:55.736Z,9.48
2023-03-16T10:52:44.995Z,9.52
2023-03-16T10:55:24.653Z,9.59
2023-03-16T10:57:55.041Z,9.67
2023-03-16T11:00:27.259Z,9.75
2023-03-16T11:02:55.163Z,9.85
2023-03-16T11:05:33.439Z,10.00
2023-03-16T11:08:15.034Z,10.09
2023-03-16T11:10:55.308Z,10.12
2023-03-16T11:13:26.254Z,10.14
2023-03-16T11:16:25.689Z,10.11
2023-03-16T11:18:58.280Z,10.23
2023-03-16T11:21:38.618Z,10.24
2023-03-16T11:24:09.487Z,10.25
2023-03-16T11:26:40.699Z,10.38
2023-03-16T11:29:17.768Z,10.50
2023-03-16T11:31:51.015Z,10.54
2023-03-16T11:34:28.396Z,10.71
2023-03-16T11:37:14.811Z,10.88
2023-03-16T11:40:09.443Z,11.03
2023-03-16T11:42:40.176Z,11.19
2023-03-16T11:45:28.149Z,11.24
2023-03-16T11:48:09.838Z,11.25
2023-03-16T11:50:51.808Z,11.29
2023-03-16T11:53:28.556Z,11.40
2023-03-16T11:56:13.380Z,11.56
2023-03-16T11:59:15.235Z,11.78
2023-03-16T12:02:11.014Z,12.10
2023-03-16T12:05:02.837Z,12.56
2023-03-16T12:07:35.401Z,12.89
2023-03-16T12:10:20.422Z,13.12
2023-03-16T12:13:01.934Z,13.31
2023-03-16T12:15:50.060Z,13.60
2023-03-16T12:18:23.406Z,14.01
2023-03-16T12:20:59.467Z,14.30
2023-03-16T12:23:49.725Z,14.73
2023-03-16T12:26:17.854Z,15.25
2023-03-16T12:28:45.489Z,15.79
2023-03-16T12:31:20.415Z,16.47
2023-03-16T12:34:16.276Z,17.30
2023-03-16T12:37:14.228Z,18.41
2023-03-16T12:40:09.069Z,18.83
2023-03-16T12:42:41.559Z,19.01
2023-03-16T12:45:13.274Z,18.94
2023-03-16T12:48:04.214Z,18.98
2023-03-16T12:50:32.026Z,19.19
2023-03-16T12:52:59.063Z,19.46
2023-03-16T12:55:39.914Z,19.83
2023-03-16T12:58:08.582Z,20.36
2023-03-16T13:00:37.699Z,20.67
2023-03-16T13:03:06.408Z,20.82
2023-03-16T13:05:35.461Z,20.08
2023-03-16T13:08:10.617Z,18.95
2023-03-16T13:10:38.774Z,17.92
2023-03-16T13:13:11.466Z,17.05
2023-03-16T13:15:39.746Z,16.32
2023-03-16T13:18:09.120Z,15.69
2023-03-16T13:20:59.211Z,15.12
2023-03-16T13:23:54.549Z,14.47
2023-03-16T13:26:38.082Z,13.95
2023-03-16T13:29:19.405Z,13.46
2023-03-16T13:31:46.435Z,12.90
2023-03-16T13:34:19.489Z,12.62
2023-03-16T13:36:46.967Z,12.50
2023-03-16T13:39:23.940Z,12.55
2023-03-16T13:42:12.659Z,12.53
2023-03-16T13:44:41.288Z,12.68
2023-03-16T13:47:08.479Z,13.05
2023-03-16T13:49:44.233Z,13.54
2023-03-16T13:52:39.089Z,14.11
2023-03-16T13:55:19.549Z,14.70
2023-03-16T13:57:48.327Z,14.95
2023-03-16T14:00:24.856Z,14.96
2023-03-16T14:02:56.332Z,14.82
2023-03-16T14:05:35.214Z,14.50
2023-03-16T14:08:02.333Z,14.17
2023-03-16T14:10:34.302Z,13.87
2023-03-16T14:13:25.424Z,13.48
2023-03-16T14:16:04.550Z,12.93
2023-03-16T14:18:34.594Z,12.50
2023-03-16T14:21:25.232Z,12.12
2023-03-16T14:23:58.617Z,11.93
2023-03-16T14:26:26.240Z,11.78
2023-03-16T14:29:08.031Z,11.64
2023-03-16T14:31:38.419Z,11.46
2023-03-16T14:34:20.062Z,11.23
2023-03-16T14:36:47.049Z,10.98
2023-03-16T14:39:16.878Z,10.77
2023-03-16T14:41:45.213Z,10.61
2023-03-16T14:44:38.625Z,10.41
2023-03-16T14:47:07.157Z,10.24
2023-03-16T14:49:38.608Z,10.09
2023-03-16T14:52:18.423Z,9.99
2023-03-16T14:54:45.761Z,9.93
2023-03-16T14:57:17.076Z,9.93
2023-03-16T14:59:43.747Z,9.92
2023-03-16T15:02:32.174Z,9.94
2023-03-16T15:05:01.337Z,9.95
2023-03-16T15:07:29.696Z,9.99
2023-03-16T15:10:15.378Z,9.97
2023-03-16T15:12:50.694Z,9.96
2023-03-16T15:15:19.575Z,9.98
2023-03-16T15:17:46.828Z,9.93
2023-03-16T15:20:18.614Z,9.91
2023-03-16T15:22:46.944Z,9.79
2023-03-16T15:25:20.663Z,9.74
2023-03-16T15:27:47.987Z,9.72
2023-03-16T15:30:26.710Z,9.70
2023-03-16T15:32:53.486Z,9.62
2023-03-16T15:35:20.692Z,9.58
2023-03-16T15:37:47.841Z,9.56
2023-03-16T15:40:35.719Z,9.54
2023-03-16T15:43:02.516Z,9.53
2023-03-16T15:45:29.517Z,9.52
2023-03-16T15:47:56.520Z,9.51
2023-03-16T15:50:24.781Z,9.45
2023-03-16T15:53:00.030Z,9.41
2023-03-16T15:55:38.359Z,9.39
2023-03-16T15:58:06.367Z,9.34
2023-03-16T16:00:37.882Z,9.30
2023-03-16T16:03:06.725Z,9.22
2023-03-16T16:05:33.769Z,9.15
2023-03-16T16:08:00.796Z,9.09
2023-03-16T16:10:28.623Z,9.03
2023-03-16T16:12:56.799Z,9.01
2023-03-16T16:15:27.622Z,9.01
2023-03-16T16:18:19.389Z,8.98
2023-03-16T16:20:42.603Z,8.92
2023-03-16T16:23:10.359Z,8.90
2023-03-16T16:25:41.482Z,8.90
2023-03-16T16:28:18.685Z,8.88
2023-03-16T16:30:46.298Z,8.85
2023-03-16T16:33:35.793Z,8.83
2023-03-16T16:36:05.931Z,8.79
2023-03-16T16:38:33.090Z,8.76
2023-03-16T16:41:02.187Z,8.71
2023-03-16T16:43:46.982Z,8.70
2023-03-16T16:46:19.987Z,8.66
2023-03-16T16:48:54.575Z,8.62
2023-03-16T16:51:28.854Z,8.56
2023-03-16T16:53:57.452Z,8.49
2023-03-16T16:56:37.376Z,8.44
2023-03-16T16:59:19.125Z,8.40
2023-03-16T17:01:48.098Z,8.36
2023-03-16T17:04:24.598Z,8.31
2023-03-16T17:06:55.523Z,8.25
2023-03-16T17:09:23.238Z,8.15
2023-03-16T17:11:51.122Z,8.11
2023-03-16T17:14:20.632Z,8.07
2023-03-16T17:16:48.457Z,8.04
2023-03-16T17:19:24.361Z,7.99
2023-03-16T17:21:52.868Z,7.93
2023-03-16T17:24:19.774Z,7.88
2023-03-16T17:26:49.285Z,7.82
2023-03-16T17:29:33.570Z,7.73
2023-03-16T17:32:01.837Z,7.67
2023-03-16T17:34:32.043Z,7.60
2023-03-16T17:36:59.061Z,7.55
2023-03-16T17:39:31.751Z,7.50
2023-03-16T17:42:01.092Z,7.44
2023-03-16T17:44:32.683Z,7.42
2023-03-16T17:46:59.550Z,7.40
2023-03-16T17:49:30.742Z,7.36
2023-03-16T17:51:57.666Z,7.31
2023-03-16T17:54:24.672Z,7.27
2023-03-16T17:56:53.822Z,7.23
2023-03-16T17:59:22.120Z,7.20
2023-03-16T18:01:49.009Z,7.17
2023-03-16T18:04:18.361Z,7.10
2023-03-16T18:06:47.262Z,7.08
2023-03-16T18:09:18.168Z,7.05
2023-03-16T18:11:48.015Z,7.02
2023-03-16T18:14:34.691Z,6.99
2023-03-16T18:17:24.053Z,6.96
2023-03-16T18:19:50.894Z,6.93
2023-03-16T18:22:22.012Z,6.91
2023-03-16T18:24:49.969Z,6.92
2023-03-16T18:27:16.768Z,6.91
2023-03-16T18:29:44.421Z,6.90
2023-03-16T18:32:23.249Z,6.89
2023-03-16T18:34:51.734Z,6.88
2023-03-16T18:37:27.880Z,6.85
2023-03-16T18:39:55.189Z,6.84
2023-03-16T18:42:23.922Z,6.80
2023-03-16T18:44:51.127Z,6.78
2023-03-16T18:47:24.011Z,6.74
2023-03-16T18:49:54.027Z,6.72
2023-03-16T18:52:26.352Z,6.67
2023-03-16T18:54:53.379Z,6.64
2023-03-16T18:57:23.337Z,6.60
2023-03-16T18:59:50.907Z,6.56
2023-03-16T19:02:34.557Z,6.52
2023-03-16T19:05:04.639Z,6.48
2023-03-16T19:07:38.840Z,6.45
2023-03-16T19:10:18.647Z,6.41
2023-03-16T19:12:45.201Z,6.38
2023-03-16T19:15:24.010Z,6.33
2023-03-16T19:17:51.232Z,6.29
2023-03-16T19:20:29.642Z,6.25
2023-03-16T19:23:06.385Z,6.21
2023-03-16T19:25:38.359Z,6.19
2023-03-16T19:28:06.322Z,6.17
2023-03-16T19:30:35.179Z,6.14
2023-03-16T19:33:02.166Z,6.12
2023-03-16T19:35:48.454Z,6.11
2023-03-16T19:38:16.534Z,6.08
2023-03-16T19:40:43.976Z,6.04
2023-03-16T19:43:21.651Z,6.00
2023-03-16T19:45:49.263Z,5.94
2023-03-16T19:48:25.021Z,5.92
2023-03-16T19:50:52.225Z,5.89
2023-03-16T19:53:22.509Z,5.87
2023-03-16T19:55:52.328Z,5.84
2023-03-16T19:58:36.621Z,5.82
2023-03-16T20:01:03.556Z,5.80
2023-03-16T20:03:38.542Z,5.78
2023-03-16T20:06:05.368Z,5.76
2023-03-16T20:08:31.810Z,5.73
2023-03-16T20:11:05.697Z,5.71
2023-03-16T20:13:33.215Z,5.69
2023-03-16T20:16:00.223Z,5.68
2023-03-16T20:18:28.790Z,5.68
2023-03-16T20:20:55.844Z,5.68
2023-03-16T20:23:29.184Z,5.67
2023-03-16T20:26:01.364Z,5.67
2023-03-16T20:28:36.130Z,5.67
2023-03-16T20:31:07.997Z,5.68
2023-03-16T20:33:35.174Z,5.67
2023-03-16T20:36:01.842Z,5.65
2023-03-16T20:38:28.723Z,5.67
2023-03-16T20:40:55.989Z,5.68
2023-03-16T20:43:28.400Z,5.71
2023-03-16T20:46:00.599Z,5.74
2023-03-16T20:48:27.972Z,5.76
2023-03-16T20:50:56.197Z,5.77
2023-03-16T20:53:23.629Z,5.79
2023-03-16T20:55:52.401Z,5.82
2023-03-16T20:58:29.703Z,5.85
2023-03-16T21:01:01.000Z,5.88
2023-03-16T21:03:30.302Z,5.91
2023-03-16T21:05:59.850Z,5.92
2023-03-16T21:08:27.091Z,5.93
2023-03-16T21:10:56.240Z,5.95
2023-03-16T21:13:33.687Z,5.96
2023-03-16T21:16:03.213Z,5.97
2023-03-16T21:18:30.435Z,5.98
2023-03-16T21:20:58.235Z,5.98
2023-03-16T21:23:24.725Z,6.01
2023-03-16T21:25:54.924Z,6.02
2023-03-16T21:28:23.410Z,6.03
2023-03-16T21:30:53.838Z,6.04
2023-03-16T21:33:27.182Z,6.04
2023-03-16T21:35:54.634Z,6.05
2023-03-16T21:38:21.360Z,6.08
2023-03-16T21:40:48.980Z,6.10
2023-03-16T21:43:16.374Z,6.12
2023-03-16T21:45:43.921Z,6.15
2023-03-16T21:48:28.026Z,6.20
2023-03-16T21:50:54.997Z,6.23
2023-03-16T21:53:24.595Z,6.25
2023-03-16T21:55:53.331Z,6.26
2023-03-16T21:58:20.253Z,6.29
2023-03-16T22:00:48.152Z,6.30
2023-03-16T22:03:33.029Z,6.33
2023-03-16T22:06:05.138Z,6.35
2023-03-16T22:08:34.421Z,6.35
2023-03-16T22:11:01.871Z,6.39
2023-03-16T22:13:29.126Z,6.40
2023-03-16T22:15:58.344Z,6.41
2023-03-16T22:18:30.944Z,6.42
2023-03-16T22:20:59.247Z,6.40
2023-03-16T22:23:35.845Z,6.39
2023-03-16T22:26:08.201Z,6.38
2023-03-16T22:28:34.922Z,6.37
2023-03-16T22:31:04.249Z,6.36
2023-03-16T22:33:34.707Z,6.33
2023-03-16T22:36:13.834Z,6.32
2023-03-16T22:38:42.507Z,6.30
2023-03-16T22:41:13.828Z,6.27
2023-03-16T22:43:43.612Z,6.27
2023-03-16T22:46:23.391Z,6.26
2023-03-16T22:48:51.551Z,6.25
2023-03-16T22:51:31.769Z,6.21
2023-03-16T22:54:12.450Z,6.19
2023-03-16T22:56:40.164Z,6.18
2023-03-16T22:59:11.527Z,6.17
2023-03-16T23:01:43.939Z,6.15
2023-03-16T23:04:20.992Z,6.15
2023-03-16T23:06:50.148Z,6.13
2023-03-16T23:09:18.360Z,6.14
2023-03-16T23:11:47.189Z,6.15
2023-03-16T23:14:17.475Z,6.15
2023-03-16T23:16:44.856Z,6.15
2023-03-16T23:19:33.879Z,6.12
2023-03-16T23:22:03.422Z,6.10
2023-03-16T23:24:30.915Z,6.12
2023-03-16T23:26:58.401Z,6.15
2023-03-16T23:29:28.905Z,6.18
2023-03-16T23:31:56.528Z,6.21
2023-03-16T23:34:25.239Z,6.23
2023-03-16T23:36:52.569Z,6.25
2023-03-16T23:39:19.188Z,6.26
2023-03-16T23:41:49.329Z,6.26
2023-03-16T23:44:23.625Z,6.26
2023-03-16T23:46:51.432Z,6.28
2023-03-16T23:49:22.292Z,6.28
2023-03-16T23:51:49.191Z,6.31
2023-03-16T23:54:28.543Z,6.31
2023-03-16T23:56:56.198Z,6.30
2023-03-16T23:59:23.450Z,6.31
